Time;durP1;ratioP1;P1;durP2;ratioP2;P2;SDS_P1;SDS_P2;PMS_P1;PMS_P2;Temp;Humidity;BMP_temperature;BMP_pressure;BME280_temperature;BME280_humidity;BME280_pressure;Samples;Min_cycle;Max_cycle;Signal;HPM_P1;HPM_P2
2022/09/13 00:01:00;;;;;;;4.00;2.27;;;;;;;15.30;100.00;99791.91;5038371;28;20474;-49
2022/09/13 00:03:27;;;;;;;1.53;1.43;;;;;;;15.20;100.00;99795.19;5037055;28;20503;-49
2022/09/13 00:05:54;;;;;;;2.00;1.90;;;;;;;15.23;100.00;99801.25;5043016;28;20509;-50
2022/09/13 00:08:20;;;;;;;1.43;1.23;;;;;;;15.22;100.00;99796.84;5043840;28;20978;-49
2022/09/13 00:10:47;;;;;;;2.83;1.33;;;;;;;15.18;100.00;99789.91;5038258;28;20474;-50
2022/09/13 00:13:15;;;;;;;1.87;1.30;;;;;;;15.19;100.00;99782.75;5036746;28;20503;-50
2022/09/13 00:15:47;;;;;;;2.03;1.83;;;;;;;15.19;100.00;99782.75;5042455;28;20625;-49
2022/09/13 00:18:15;;;;;;;4.10;3.90;;;;;;;15.24;100.00;99784.25;5043874;28;20485;-50
2022/09/13 00:20:41;;;;;;;2.47;2.27;;;;;;;15.20;100.00;99773.75;5038804;28;20471;-49
2022/09/13 00:23:08;;;;;;;2.70;1.43;;;;;;;15.23;100.00;99777.16;5033589;28;21082;-51
2022/09/13 00:25:34;;;;;;;1.37;1.27;;;;;;;15.22;100.00;99785.28;5040298;28;20455;-49
2022/09/13 00:28:02;;;;;;;1.30;1.20;;;;;;;15.01;100.00;99780.16;5037845;28;20512;-50
2022/09/13 00:30:28;;;;;;;2.63;2.00;;;;;;;15.01;100.00;99782.81;5039452;28;21118;-50
2022/09/13 00:32:55;;;;;;;2.10;2.00;;;;;;;15.06;100.00;99774.53;5043444;28;20447;-50
2022/09/13 00:35:22;;;;;;;1.90;1.80;;;;;;;14.94;100.00;99783.22;5038796;28;20451;-50
2022/09/13 00:37:49;;;;;;;1.67;1.47;;;;;;;14.70;100.00;99780.09;5034695;28;20451;-50
2022/09/13 00:40:15;;;;;;;2.10;1.97;;;;;;;14.58;100.00;99784.28;5039144;28;20479;-50
2022/09/13 00:42:42;;;;;;;1.73;1.63;;;;;;;14.62;100.00;99768.94;5043339;28;20480;-50
2022/09/13 00:45:11;;;;;;;1.50;1.40;;;;;;;14.82;100.00;99766.91;5041225;28;20519;-49
2022/09/13 00:47:44;;;;;;;2.00;1.90;;;;;;;14.77;100.00;99760.06;5036401;28;20798;-49
2022/09/13 00:50:27;;;;;;;13.73;1.90;;;;;;;14.77;100.00;99765.41;5035951;28;20549;-49
2022/09/13 00:53:00;;;;;;;2.70;2.00;;;;;;;14.80;100.00;99768.81;5026433;28;20936;-49
2022/09/13 00:55:36;;;;;;;1.20;1.10;;;;;;;14.81;100.00;99775.03;5036361;28;20496;-49
2022/09/13 00:58:07;;;;;;;1.90;1.80;;;;;;;14.86;100.00;99781.00;5039310;28;20957;-49
2022/09/13 01:12:40;;;;;;;1.80;1.70;;;;;;;14.43;100.00;99780.56;5035791;28;20540;-50
2022/09/13 01:15:07;;;;;;;1.20;1.07;;;;;;;14.41;100.00;99787.81;5036082;28;20451;-49
2022/09/13 01:17:34;;;;;;;3.13;1.30;;;;;;;14.34;100.00;99785.53;5037379;28;20462;-50
2022/09/13 01:20:03;;;;;;;1.63;1.40;;;;;;;14.44;100.00;99797.53;5042629;28;20472;-49
2022/09/13 01:23:06;;;;;;;2.03;1.93;;;;;;;14.40;100.00;99783.41;5029456;28;20501;-49
2022/09/13 01:26:00;;;;;;;3.33;1.87;;;;;;;14.28;100.00;99761.81;5029640;28;20451;-49
2022/09/13 01:28:52;;;;;;;2.63;2.43;;;;;;;14.30;100.00;99746.53;5039655;28;21026;-50
2022/09/13 01:31:32;;;;;;;1.83;1.60;;;;;;;14.27;100.00;99752.06;5035594;28;20520;-49
2022/09/13 01:34:19;;;;;;;2.00;1.90;;;;;;;14.35;100.00;99766.72;5036107;28;20439;-48
2022/09/13 01:37:23;;;;;;;1.40;1.30;;;;;;;14.77;100.00;99785.00;5023734;28;20458;-50
2022/09/13 01:40:05;;;;;;;2.63;2.40;;;;;;;14.65;100.00;99801.72;5041508;28;20533;-51
2022/09/13 01:43:05;;;;;;;2.47;2.27;;;;;;;14.67;100.00;99801.66;5042221;28;20479;-51
2022/09/13 01:45:37;;;;;;;1.90;1.80;;;;;;;14.70;100.00;99810.38;5042465;28;20508;-50
2022/09/13 01:48:43;;;;;;;2.63;2.30;;;;;;;14.49;100.00;99796.31;5037181;28;20454;-50
2022/09/13 01:51:37;;;;;;;2.73;2.10;;;;;;;14.52;100.00;99793.47;5041602;28;20486;-50
2022/09/13 01:54:17;;;;;;;1.70;1.57;;;;;;;14.38;100.00;99790.63;5042261;28;20907;-49
2022/09/13 01:56:46;;;;;;;1.80;1.70;;;;;;;14.36;100.00;99797.88;5041649;28;20451;-49
2022/09/13 01:59:21;;;;;;;1.70;1.30;;;;;;;14.12;100.00;99783.13;5022539;28;20459;-48
2022/09/13 02:02:04;;;;;;;3.43;3.13;;;;;;;14.18;100.00;99780.97;5035465;28;20443;-49
2022/09/13 02:04:42;;;;;;;10.17;1.87;;;;;;;14.18;100.00;99783.66;5039560;28;20541;-50
2022/09/13 02:07:13;;;;;;;1.80;1.30;;;;;;;14.21;100.00;99796.00;5025759;28;20447;-50
2022/09/13 02:09:44;;;;;;;1.17;1.07;;;;;;;14.23;100.00;99802.13;5041176;28;20451;-50
2022/09/13 02:12:19;;;;;;;1.57;1.47;;;;;;;14.39;100.00;99797.75;5035087;28;20484;-50
2022/09/13 02:14:54;;;;;;;2.83;2.63;;;;;;;14.36;100.00;99797.88;5035413;28;20500;-50
2022/09/13 02:17:24;;;;;;;2.33;1.97;;;;;;;14.30;100.00;99790.19;5039596;28;21082;-50
2022/09/13 02:19:58;;;;;;;1.33;1.23;;;;;;;14.35;100.00;99789.94;5041980;28;21059;-49
2022/09/13 02:22:30;;;;;;;1.67;1.00;;;;;;;14.29;100.00;99792.94;5028372;28;20478;-50
2022/09/13 02:25:12;;;;;;;2.10;1.90;;;;;;;14.41;100.00;99786.97;5040667;28;20545;-50
2022/09/13 02:27:43;;;;;;;5.83;2.23;;;;;;;14.43;100.00;99785.94;5032891;28;20447;-49
2022/09/13 02:30:11;;;;;;;1.43;1.33;;;;;;;14.44;100.00;99794.84;5040925;28;20475;-50
2022/09/13 02:32:48;;;;;;;2.47;2.37;;;;;;;14.49;100.00;99795.47;5041534;28;20454;-51
2022/09/13 02:35:29;;;;;;;1.50;1.40;;;;;;;14.73;100.00;99810.22;5038070;28;20819;-50
2022/09/13 02:38:21;;;;;;;5.50;1.93;;;;;;;14.67;100.00;99805.22;5032054;28;20446;-49
2022/09/13 02:40:55;;;;;;;1.60;1.50;;;;;;;14.62;100.00;99796.53;5034997;28;20854;-49
2022/09/13 02:43:33;;;;;;;1.73;1.63;;;;;;;14.57;100.00;99787.91;5038770;28;20502;-49
2022/09/13 02:46:08;;;;;;;2.37;2.10;;;;;;;14.61;100.00;99791.28;5033224;28;20450;-49
2022/09/13 02:48:48;;;;;;;1.47;1.37;;;;;;;14.48;100.00;99781.22;5036094;28;20458;-50
2022/09/13 02:51:53;;;;;;;1.70;1.53;;;;;;;14.52;100.00;99793.47;5023413;28;20622;-50
2022/09/13 02:54:36;;;;;;;1.93;1.73;;;;;;;14.65;100.00;99790.16;5016104;28;20493;-50
2022/09/13 02:57:08;;;;;;;1.80;1.70;;;;;;;14.69;100.00;99787.25;5035280;28;20853;-49
2022/09/13 02:59:35;;;;;;;1.80;1.03;;;;;;;14.68;100.00;99777.50;5041999;28;20883;-50
2022/09/13 03:02:09;;;;;;;3.20;1.60;;;;;;;14.75;100.00;99762.84;5045018;28;21886;-49
2022/09/13 03:04:36;;;;;;;1.30;1.20;;;;;;;14.76;100.00;99763.69;5042562;28;20486;-49
2022/09/13 03:07:06;;;;;;;1.83;1.73;;;;;;;14.82;100.00;99780.31;5038212;28;21307;-48
2022/09/13 03:09:33;;;;;;;1.80;1.57;;;;;;;15.07;100.00;99789.63;5040877;28;20960;-49
2022/09/13 03:12:11;;;;;;;2.00;1.60;;;;;;;14.80;100.00;99774.16;5044862;28;20828;-50
2022/09/13 03:15:05;;;;;;;1.70;1.60;;;;;;;14.91;100.00;99772.69;5044350;28;20450;-48
2022/09/13 03:17:48;;;;;;;1.67;1.57;;;;;;;14.99;100.00;99757.97;5041742;28;20482;-49
2022/09/13 03:20:18;;;;;;;3.63;3.43;;;;;;;14.89;100.00;99759.41;5044706;28;20472;-50
2022/09/13 03:23:09;;;;;;;1.33;1.17;;;;;;;14.90;100.00;99750.44;5031443;28;20513;-49
2022/09/13 03:25:47;;;;;;;2.70;2.53;;;;;;;14.80;100.00;99750.09;5041301;28;20486;-49
2022/09/13 03:28:45;;;;;;;1.10;0.90;;;;;;;14.90;100.00;99758.47;5039605;28;20451;-48
2022/09/13 03:31:26;;;;;;;1.60;1.50;;;;;;;14.83;100.00;99746.38;5037693;28;20561;-49
2022/09/13 03:34:06;;;;;;;2.50;2.40;;;;;;;14.80;100.00;99739.38;5039138;28;20451;-49
2022/09/13 03:36:40;;;;;;;8.07;2.50;;;;;;;14.80;100.00;99736.72;5042085;28;20860;-48
2022/09/13 03:39:10;;;;;;;2.27;2.17;;;;;;;14.91;100.00;99741.44;5044707;28;20504;-49
2022/09/13 03:41:45;;;;;;;8.20;1.77;;;;;;;14.85;100.00;99736.44;5040698;28;20462;-49
2022/09/13 03:44:18;;;;;;;2.50;2.30;;;;;;;14.84;100.00;99723.16;5037613;28;20552;-49
2022/09/13 03:46:53;;;;;;;1.70;1.60;;;;;;;14.82;100.00;99724.09;5039833;28;20505;-49
2022/09/13 03:49:22;;;;;;;1.70;1.60;;;;;;;14.86;100.00;99726.59;5044433;28;20516;-48
2022/09/13 03:51:50;;;;;;;1.17;1.10;;;;;;;14.87;100.00;99720.31;5043542;28;20508;-49
2022/09/13 03:54:22;;;;;;;4.60;1.43;;;;;;;14.88;100.00;99727.38;5026547;28;20472;-49
2022/09/13 03:57:08;;;;;;;1.83;1.73;;;;;;;14.95;100.00;99723.44;5033355;28;20493;-49
2022/09/13 03:59:37;;;;;;;1.60;1.47;;;;;;;14.96;100.00;99718.00;5029934;28;20493;-49
2022/09/13 04:02:10;;;;;;;2.37;2.17;;;;;;;14.93;100.00;99719.94;5037774;28;20459;-52
2022/09/13 04:04:41;;;;;;;2.27;2.07;;;;;;;14.92;100.00;99718.22;5039597;28;20501;-49
2022/09/13 04:07:10;;;;;;;1.37;1.20;;;;;;;14.78;100.00;99714.50;5027435;28;20461;-49
2022/09/13 04:09:37;;;;;;;2.50;2.40;;;;;;;14.85;100.00;99712.38;5043010;28;20512;-49
2022/09/13 04:12:03;;;;;;;3.93;1.43;;;;;;;14.97;100.00;99722.38;5037383;28;20450;-48
2022/09/13 04:14:30;;;;;;;2.27;2.17;;;;;;;14.92;100.00;99727.13;5038346;28;20456;-49
2022/09/13 04:16:57;;;;;;;1.77;1.67;;;;;;;14.83;100.00;99730.31;5043796;28;20459;-50
2022/09/13 04:19:24;;;;;;;4.13;1.77;;;;;;;14.86;100.00;99732.81;5043349;28;20447;-49
2022/09/13 04:21:53;;;;;;;2.00;1.90;;;;;;;15.02;100.00;99731.00;5030447;28;20451;-50
2022/09/13 04:24:19;;;;;;;3.20;1.60;;;;;;;15.09;100.00;99727.06;5043647;28;20494;-49
2022/09/13 04:26:50;;;;;;;2.27;2.00;;;;;;;14.99;100.00;99731.19;5034408;28;20513;-47
2022/09/13 04:29:17;;;;;;;1.70;1.60;;;;;;;14.94;100.00;99727.91;5043596;28;20459;-48
2022/09/13 04:31:44;;;;;;;1.70;1.60;;;;;;;15.01;100.00;99726.63;5037424;28;20512;-49
2022/09/13 04:34:12;;;;;;;2.60;2.40;;;;;;;14.87;100.00;99726.53;5036763;28;20486;-48
2022/09/13 04:36:38;;;;;;;3.50;2.60;;;;;;;14.88;100.00;99722.03;5039051;28;20455;-49
2022/09/13 04:39:05;;;;;;;1.37;1.27;;;;;;;15.53;100.00;99726.34;5042923;28;20450;-49
2022/09/13 04:41:33;;;;;;;2.80;1.73;;;;;;;15.04;100.00;99725.56;5037789;28;20471;-48
2022/09/13 04:44:00;;;;;;;2.00;1.90;;;;;;;14.98;100.00;99733.97;5036028;28;20848;-49
2022/09/13 04:46:28;;;;;;;17.00;2.10;;;;;;;14.90;100.00;99737.03;5042005;28;20960;-49
2022/09/13 04:48:54;;;;;;;3.83;2.00;;;;;;;14.86;100.00;99735.50;5043040;28;20960;-48
2022/09/13 04:51:21;;;;;;;2.83;2.63;;;;;;;14.73;100.00;99729.94;5037834;28;21016;-49
2022/09/13 04:53:53;;;;;;;1.93;1.80;;;;;;;14.47;100.00;99726.00;5036224;28;20448;-47
2022/09/13 04:56:22;;;;;;;2.40;2.00;;;;;;;14.59;100.00;99729.84;5040510;28;21015;-48
2022/09/13 04:58:52;;;;;;;2.07;1.87;;;;;;;14.63;100.00;99741.22;5042691;28;20456;-49
2022/09/13 05:01:20;;;;;;;3.00;2.30;;;;;;;14.87;100.00;99747.94;5040132;28;20474;-48
2022/09/13 05:03:52;;;;;;;2.33;1.37;;;;;;;14.93;100.00;99749.38;5035793;28;20490;-49
2022/09/13 05:06:19;;;;;;;2.00;1.90;;;;;;;14.96;100.00;99750.09;5037948;28;20811;-48
2022/09/13 05:08:53;;;;;;;3.00;2.53;;;;;;;14.96;100.00;99752.78;5042759;28;20517;-48
2022/09/13 05:11:22;;;;;;;2.07;1.97;;;;;;;14.94;100.00;99749.34;5042041;28;20544;-48
2022/09/13 05:13:54;;;;;;;2.30;2.10;;;;;;;15.02;100.00;99760.47;5042357;28;20482;-49
2022/09/13 05:16:23;;;;;;;1.50;1.40;;;;;;;15.30;100.00;99766.94;5043011;28;20499;-49
2022/09/13 05:18:50;;;;;;;33.87;2.43;;;;;;;15.28;100.00;99777.75;5037718;28;20490;-48
2022/09/13 05:21:17;;;;;;;2.33;2.13;;;;;;;15.30;100.00;99778.53;5033974;28;20522;-48
2022/09/13 05:23:44;;;;;;;2.00;1.90;;;;;;;15.32;100.00;99773.94;5037553;28;20455;-49
2022/09/13 05:26:10;;;;;;;2.07;1.83;;;;;;;15.39;100.00;99775.34;5034349;28;20995;-48
2022/09/13 05:28:37;;;;;;;2.50;2.00;;;;;;;15.39;100.00;99779.84;5040046;28;20497;-48
2022/09/13 05:31:06;;;;;;;2.30;1.63;;;;;;;15.33;100.00;99773.00;5035619;28;20471;-49
2022/09/13 05:33:35;;;;;;;2.40;2.20;;;;;;;15.35;100.00;99776.47;5038538;28;20456;-48
2022/09/13 05:36:03;;;;;;;4.07;1.80;;;;;;;15.28;100.00;99777.75;5040546;28;20501;-49
2022/09/13 05:38:29;;;;;;;2.27;2.07;;;;;;;15.35;100.00;99765.75;5039157;28;21025;-49
2022/09/13 05:40:58;;;;;;;3.40;2.10;;;;;;;15.29;100.00;99767.91;5035312;28;20533;-48
2022/09/13 05:43:27;;;;;;;34.80;2.50;;;;;;;15.24;100.00;99772.66;5038396;28;21123;-49
2022/09/13 05:46:23;;;;;;;2.53;2.33;;;;;;;15.16;100.00;99758.81;5042202;28;20553;-49
2022/09/13 05:48:49;;;;;;;1.73;1.63;;;;;;;15.18;100.00;99764.97;5036930;28;20464;-48
2022/09/13 05:51:21;;;;;;;2.07;1.60;;;;;;;15.28;100.00;99756.31;5036594;28;20845;-49
2022/09/13 05:53:49;;;;;;;1.83;1.73;;;;;;;15.34;100.00;99757.78;5035424;28;20886;-49
2022/09/13 05:56:18;;;;;;;4.83;2.10;;;;;;;15.56;100.00;99773.50;5040121;28;20520;-49
2022/09/13 05:58:47;;;;;;;1.60;1.50;;;;;;;15.51;100.00;99773.78;5042625;28;20450;-49
2022/09/13 06:01:16;;;;;;;21.60;2.13;;;;;;;15.47;100.00;99766.84;5038183;28;20477;-48
2022/09/13 06:03:45;;;;;;;2.03;1.93;;;;;;;15.48;100.00;99768.56;5035388;28;20912;-48
2022/09/13 06:06:11;;;;;;;7.03;1.77;;;;;;;15.50;100.00;99766.69;5038492;28;20839;-48
2022/09/13 06:08:38;;;;;;;8.07;2.07;;;;;;;15.46;100.00;99773.16;5042009;28;20456;-48
2022/09/13 06:11:07;;;;;;;1.70;1.60;;;;;;;15.48;100.00;99760.53;5037926;28;20471;-49
2022/09/13 06:13:34;;;;;;;2.23;1.97;;;;;;;15.60;100.00;99757.19;5035144;28;20557;-50
2022/09/13 06:16:03;;;;;;;6.80;2.40;;;;;;;15.65;100.00;99755.13;5037648;28;20456;-49
2022/09/13 06:18:30;;;;;;;1.70;1.60;;;;;;;15.94;100.00;99763.28;5041746;28;20908;-49
2022/09/13 06:21:03;;;;;;;2.93;2.00;;;;;;;16.06;100.00;99773.28;5037568;28;20471;-48
2022/09/13 06:23:30;;;;;;;2.00;1.70;;;;;;;16.14;100.00;99780.84;5035159;28;20529;-48
2022/09/13 06:26:07;;;;;;;2.00;1.90;;;;;;;16.29;100.00;99786.16;5035495;28;20499;-49
2022/09/13 06:28:35;;;;;;;3.90;2.17;;;;;;;16.89;100.00;99782.53;5034690;28;20447;-49
2022/09/13 06:31:23;;;;;;;1.27;1.17;;;;;;;16.67;100.00;99779.41;5035230;28;20471;-49
2022/09/13 06:33:56;;;;;;;4.83;2.03;;;;;;;16.61;100.00;99777.97;5038781;28;20451;-51
2022/09/13 06:36:23;;;;;;;2.00;1.80;;;;;;;16.37;100.00;99776.78;5043624;28;20458;-49
2022/09/13 06:38:49;;;;;;;3.27;1.60;;;;;;;16.29;100.00;99786.16;5045026;28;20878;-50
2022/09/13 06:41:18;;;;;;;14.37;2.53;;;;;;;16.58;100.00;99792.47;5038861;28;20479;-49
2022/09/13 06:43:51;;;;;;;1.97;1.87;;;;;;;16.33;100.00;99789.53;5039078;28;20447;-50
2022/09/13 06:46:19;;;;;;;2.30;1.80;;;;;;;16.50;100.00;99789.38;5026436;28;20494;-50
2022/09/13 06:48:51;;;;;;;2.30;2.10;;;;;;;16.45;100.00;99793.31;5038322;28;20458;-50
2022/09/13 06:51:20;;;;;;;4.27;2.23;;;;;;;16.56;100.00;99790.81;5043745;28;20483;-50
2022/09/13 06:53:49;;;;;;;1.97;1.60;;;;;;;16.49;100.00;99801.06;5045683;28;20459;-49
2022/09/13 06:56:18;;;;;;;1.83;1.73;;;;;;;16.58;100.00;99807.66;5040625;28;20450;-50
2022/09/13 06:58:47;;;;;;;1.00;0.70;;;;;;;16.96;100.00;99801.78;5038400;28;21026;-50
2022/09/13 07:01:19;;;;;;;1.87;1.70;;;;;;;16.75;100.00;99801.31;5042720;28;20475;-52
2022/09/13 07:03:48;;;;;;;6.63;2.33;;;;;;;16.52;100.00;99810.75;5045035;28;21015;-51
2022/09/13 07:06:20;;;;;;;13.27;2.63;;;;;;;16.59;100.00;99812.97;5030795;28;20908;-50
2022/09/13 07:08:49;;;;;;;8.90;1.93;;;;;;;16.57;100.00;99800.56;5043824;28;20546;-50
2022/09/13 07:11:18;;;;;;;3.90;1.53;;;;;;;16.78;100.00;99804.66;5043699;28;20525;-49
2022/09/13 07:13:56;;;;;;;1.20;1.10;;;;;;;16.66;100.00;99793.78;5038371;28;20504;-49
2022/09/13 07:16:24;;;;;;;2.23;1.60;;;;;;;16.66;100.00;99783.06;5038140;28;20444;-50
2022/09/13 07:18:56;;;;;;;1.60;1.50;;;;;;;16.71;100.00;99778.28;5044428;28;20456;-50
2022/09/13 07:21:23;;;;;;;3.07;2.77;;;;;;;16.64;100.00;99763.50;5039898;28;20471;-50
2022/09/13 07:23:51;;;;;;;2.07;1.20;;;;;;;16.69;100.00;99754.22;5040760;28;20935;-50
2022/09/13 07:26:17;;;;;;;1.60;1.50;;;;;;;16.71;100.00;99748.75;5037870;28;21322;-50
2022/09/13 07:28:46;;;;;;;3.00;1.20;;;;;;;16.54;100.00;99745.28;5041909;28;20974;-49
2022/09/13 07:31:24;;;;;;;1.27;1.17;;;;;;;16.29;100.00;99732.50;5038110;28;20907;-49
2022/09/13 07:33:56;;;;;;;1.80;1.70;;;;;;;16.38;100.00;99740.97;5039629;28;20935;-49
2022/09/13 07:36:24;;;;;;;1.30;1.20;;;;;;;16.51;100.00;99741.94;5041482;28;20447;-51
2022/09/13 07:38:50;;;;;;;6.40;3.00;;;;;;;16.56;100.00;99735.31;5042863;28;20454;-50
2022/09/13 07:41:19;;;;;;;3.67;1.90;;;;;;;16.84;100.00;99744.34;5037636;28;20474;-50
2022/09/13 07:43:46;;;;;;;9.73;2.50;;;;;;;16.96;100.00;99742.72;5038120;28;20475;-51
2022/09/13 07:46:16;;;;;;;1.63;1.53;;;;;;;17.41;100.00;99750.53;5044368;28;20495;-50
2022/09/13 07:48:44;;;;;;;12.83;1.77;;;;;;;17.27;100.00;99760.41;5044165;28;20905;-51
2022/09/13 07:51:13;;;;;;;1.93;1.40;;;;;;;17.31;100.00;99764.66;5043744;28;20491;-51
2022/09/13 07:53:41;;;;;;;2.03;1.93;;;;;;;17.43;100.00;99766.53;5044723;28;20455;-50
2022/09/13 07:56:13;;;;;;;1.60;1.50;;;;;;;17.58;100.00;99761.97;5038317;28;20497;-51
2022/09/13 07:58:41;;;;;;;3.60;2.90;;;;;;;17.67;100.00;99761.34;5037449;28;20960;-51
2022/09/13 08:01:26;;;;;;;2.50;2.30;;;;;;;17.68;100.00;99765.75;5042337;28;20517;-50
2022/09/13 08:04:01;;;;;;;3.03;2.67;;;;;;;17.53;100.00;99762.25;5044045;28;20923;-50
2022/09/13 08:06:29;;;;;;;2.63;2.43;;;;;;;17.51;100.00;99760.63;5045482;23;20589;-60
2022/09/13 08:08:56;;;;;;;6.40;2.83;;;;;;;17.46;100.00;99758.25;5030913;28;20829;-60
2022/09/13 08:11:27;;;;;;;2.73;2.63;;;;;;;17.73;100.00;99758.31;5030727;28;20913;-59
2022/09/13 08:13:53;;;;;;;2.77;2.57;;;;;;;17.66;100.00;99762.31;5000047;28;20501;-60
2022/09/13 08:16:22;;;;;;;3.50;3.30;;;;;;;18.03;100.00;99774.19;5030384;28;20517;-60
2022/09/13 08:18:50;;;;;;;3.20;2.87;;;;;;;18.20;100.00;99775.75;5030148;28;20451;-60
2022/09/13 08:21:17;;;;;;;2.73;2.53;;;;;;;17.86;100.00;99767.28;5014600;28;20514;-60
2022/09/13 08:23:44;;;;;;;3.77;3.40;;;;;;;17.77;100.00;99766.06;5034106;28;21246;-60
2022/09/13 08:26:12;;;;;;;3.37;2.10;;;;;;;17.77;100.00;99784.00;5025363;28;20872;-60
2022/09/13 08:28:41;;;;;;;6.00;3.40;;;;;;;17.93;100.00;99794.59;5003559;28;20835;-60
2022/09/13 08:31:15;;;;;;;12.30;2.20;;;;;;;17.93;100.00;99802.66;5029921;28;20518;-60
2022/09/13 08:33:47;;;;;;;9.50;3.03;;;;;;;18.22;100.00;99806.94;5030335;28;20451;-60
2022/09/13 08:36:15;;;;;;;2.53;2.33;;;;;;;18.14;100.00;99805.75;5025689;28;20511;-59
2022/09/13 08:38:47;;;;;;;3.50;2.33;;;;;;;18.15;100.00;99804.78;5004294;28;20979;-60
2022/09/13 08:41:34;;;;;;;2.37;2.23;;;;;;;18.50;100.00;99794.28;5029812;28;20487;-59
2022/09/13 08:44:22;;;;;;;3.20;1.93;;;;;;;18.45;100.00;99802.69;5030859;28;20455;-60
2022/09/13 08:46:49;;;;;;;3.10;2.03;;;;;;;18.81;100.00;99814.63;5030097;28;20498;-60
2022/09/13 08:49:30;;;;;;;2.80;2.60;;;;;;;18.39;100.00;99803.13;5029625;28;20834;-60
2022/09/13 08:52:01;;;;;;;1.63;1.53;;;;;;;18.10;100.00;99796.19;5030194;28;20498;-60
2022/09/13 08:54:28;;;;;;;1.87;1.77;;;;;;;18.20;100.00;99797.25;5029980;28;20451;-60
2022/09/13 08:57:05;;;;;;;2.30;1.90;;;;;;;18.13;100.00;99787.91;5029355;28;20811;-60
2022/09/13 09:00:02;;;;;;;3.53;2.50;;;;;;;18.17;100.00;99778.66;5029994;28;20505;-60
2022/09/13 09:02:48;;;;;;;2.70;2.53;;;;;;;18.13;100.00;99778.00;5029559;28;20798;-60
2022/09/13 09:05:19;;;;;;;2.13;2.03;;;;;;;18.04;100.00;99763.34;5029353;28;20585;-60
2022/09/13 09:08:17;;;;;;;13.33;2.63;;;;;;;18.15;100.00;99767.13;5019844;28;20457;-60
2022/09/13 09:10:49;;;;;;;1.40;1.30;;;;;;;18.42;100.00;99759.84;4975820;28;20460;-60
2022/09/13 09:13:31;;;;;;;2.57;2.37;;;;;;;18.58;100.00;99762.34;5025019;28;20448;-60
2022/09/13 09:16:06;;;;;;;2.93;2.60;;;;;;;18.91;100.00;99754.59;5029383;28;20836;-60
2022/09/13 09:18:38;;;;;;;3.60;1.90;;;;;;;18.78;100.00;99750.22;5011864;28;20845;-60
2022/09/13 09:21:13;;;;;;;7.73;1.90;;;;;;;19.37;100.00;99761.19;5029467;28;20498;-60
2022/09/13 09:23:52;;;;;;;2.20;2.00;;;;;;;19.34;100.00;99764.97;5010749;28;20506;-59
2022/09/13 09:26:28;;;;;;;4.10;2.20;;;;;;;19.44;100.00;99773.22;5025570;28;20546;-60
2022/09/13 09:28:58;;;;;;;1.70;1.60;;;;;;;19.17;100.00;99776.94;5020340;28;20447;-60
2022/09/13 09:31:44;;;;;;;3.20;2.40;;;;;;;19.17;100.00;99784.19;5029734;28;20521;-59
2022/09/13 09:34:45;;;;;;;1.13;1.03;;;;;;;19.26;100.00;99790.75;5029191;28;20460;-60
2022/09/13 09:37:26;;;;;;;12.10;2.70;;;;;;;19.28;100.00;99786.97;4989047;28;20455;-60
2022/09/13 09:40:00;;;;;;;2.00;1.80;;;;;;;19.22;100.00;99790.97;5009375;28;20853;-60
2022/09/13 09:42:29;;;;;;;6.83;2.40;;;;;;;19.53;100.00;99786.03;5024585;28;20505;-60
2022/09/13 09:45:00;;;;;;;1.87;1.77;;;;;;;20.05;98.46;99784.88;5028886;28;21008;-60
2022/09/13 09:47:31;;;;;;;2.27;1.60;;;;;;;19.96;97.50;99783.72;5029023;28;20456;-60
2022/09/13 09:50:11;;;;;;;2.20;2.10;;;;;;;20.24;95.50;99795.13;5028918;28;20451;-60
2022/09/13 09:52:52;;;;;;;1.50;1.40;;;;;;;20.01;96.85;99791.47;5028784;28;20451;-60
2022/09/13 09:55:34;;;;;;;4.00;2.53;;;;;;;20.10;95.31;99788.06;5029132;28;20467;-60
2022/09/13 09:58:05;;;;;;;1.10;1.00;;;;;;;20.23;93.59;99786.16;5029116;28;20451;-60
2022/09/13 10:00:35;;;;;;;1.60;1.50;;;;;;;20.20;92.95;99777.44;5028943;28;20454;-60
2022/09/13 10:03:15;;;;;;;7.80;1.80;;;;;;;20.45;91.37;99769.22;5028872;28;20854;-60
2022/09/13 10:05:42;;;;;;;5.23;1.50;;;;;;;20.29;92.42;99777.59;5028765;28;20851;-60
2022/09/13 10:08:30;;;;;;;15.53;2.37;;;;;;;20.59;91.69;99787.03;5018436;28;20463;-60
2022/09/13 10:11:01;;;;;;;1.47;1.37;;;;;;;20.16;89.60;99784.06;5013125;28;20490;-60
2022/09/13 10:13:28;;;;;;;3.70;2.50;;;;;;;20.36;93.39;99776.13;5029550;28;20455;-60
2022/09/13 10:16:03;;;;;;;1.03;0.93;;;;;;;20.54;93.13;99771.16;5032703;28;20472;-60
2022/09/13 10:18:32;;;;;;;1.10;1.00;;;;;;;20.39;95.00;99778.59;5032666;28;20541;-60
2022/09/13 10:21:18;;;;;;;1.47;1.37;;;;;;;20.53;95.50;99793.75;5034223;28;20986;-60
2022/09/13 10:23:46;;;;;;;2.40;1.77;;;;;;;20.18;97.54;99796.47;5035622;28;20452;-60
2022/09/13 10:26:16;;;;;;;2.00;1.63;;;;;;;20.32;100.00;99807.06;5028045;28;20495;-60
2022/09/13 10:29:07;;;;;;;1.63;1.53;;;;;;;20.09;99.68;99792.59;5005957;28;20850;-59
2022/09/13 10:31:37;;;;;;;5.33;2.33;;;;;;;19.91;100.00;99795.84;5032608;28;20448;-60
2022/09/13 10:34:15;;;;;;;2.60;2.10;;;;;;;19.96;100.00;99797.22;5032272;28;20447;-60
2022/09/13 10:37:16;;;;;;;5.30;3.03;;;;;;;20.02;100.00;99798.59;5024092;28;21059;-60
2022/09/13 10:39:52;;;;;;;3.27;2.97;;;;;;;20.04;100.00;99797.50;4998835;28;20526;-60
2022/09/13 10:42:22;;;;;;;2.03;1.70;;;;;;;20.10;100.00;99788.06;5026946;28;20513;-60
2022/09/13 10:44:56;;;;;;;9.40;2.60;;;;;;;20.10;100.00;99772.75;5032195;28;20472;-60
2022/09/13 10:47:26;;;;;;;3.30;2.10;;;;;;;20.01;100.00;99764.47;5032120;28;20844;-60
2022/09/13 10:49:56;;;;;;;1.87;1.77;;;;;;;20.03;100.00;99757.16;5032011;28;20509;-60
2022/09/13 10:52:31;;;;;;;1.33;1.23;;;;;;;19.99;100.00;99756.50;5014244;28;20455;-59
2022/09/13 10:55:21;;;;;;;3.13;2.80;;;;;;;19.90;100.00;99745.56;5031975;28;20833;-59
2022/09/13 10:58:00;;;;;;;2.80;1.63;;;;;;;19.99;100.00;99751.09;5012541;28;20809;-60
2022/09/13 11:00:45;;;;;;;3.00;2.60;;;;;;;19.94;100.00;99758.69;5029838;28;20451;-60
2022/09/13 11:03:33;;;;;;;2.23;2.13;;;;;;;19.95;100.00;99754.16;5031675;28;20448;-60
2022/09/13 11:06:06;;;;;;;2.43;2.27;;;;;;;20.03;100.00;99765.25;5031828;28;20917;-59
2022/09/13 11:08:51;;;;;;;2.40;2.30;;;;;;;20.25;100.00;99757.19;5018465;28;20514;-60
2022/09/13 11:11:36;;;;;;;2.83;2.63;;;;;;;20.11;100.00;99755.56;5031797;28;20501;-60
2022/09/13 11:14:12;;;;;;;3.90;3.07;;;;;;;20.08;100.00;99753.09;5032023;28;20509;-60
2022/09/13 11:17:06;;;;;;;2.77;2.57;;;;;;;20.17;100.00;99756.09;5014027;28;20470;-60
2022/09/13 11:19:45;;;;;;;2.63;2.30;;;;;;;20.17;99.69;99735.38;5030727;28;21002;-60
2022/09/13 11:22:49;;;;;;;2.33;2.13;;;;;;;20.11;100.00;99711.53;5039941;28;20447;-60
2022/09/13 11:25:38;;;;;;;2.50;2.30;;;;;;;20.23;97.39;99710.59;5019332;28;20509;-60
2022/09/13 11:28:54;;;;;;;2.57;2.40;;;;;;;20.36;99.61;99722.16;5004245;28;20953;-60
2022/09/13 11:31:28;;;;;;;2.20;2.10;;;;;;;20.32;100.00;99714.41;5001268;28;20459;-59
2022/09/13 11:34:05;;;;;;;1.70;1.60;;;;;;;20.34;100.00;99707.06;5031232;28;20447;-60
2022/09/13 11:37:01;;;;;;;1.40;1.30;;;;;;;20.25;99.72;99714.00;5025046;28;20471;-60
2022/09/13 11:39:35;;;;;;;1.80;1.70;;;;;;;20.28;100.00;99711.06;5019146;28;20455;-60
2022/09/13 11:42:20;;;;;;;2.23;2.00;;;;;;;20.35;100.00;99708.78;5013578;28;20839;-60
2022/09/13 11:45:06;;;;;;;2.77;2.00;;;;;;;20.68;100.00;99714.22;5011923;28;21028;-60
2022/09/13 11:47:48;;;;;;;2.63;2.43;;;;;;;20.82;100.00;99715.81;5027921;28;20499;-60
2022/09/13 11:50:42;;;;;;;2.17;2.07;;;;;;;21.04;100.00;99711.41;5030828;28;20952;-60
2022/09/13 11:53:16;;;;;;;1.10;1.00;;;;;;;21.11;99.21;99715.34;5031059;28;20456;-60
2022/09/13 11:56:04;;;;;;;2.93;2.70;;;;;;;21.53;97.51;99717.25;5013609;28;20735;-60
2022/09/13 11:58:49;;;;;;;1.97;1.87;;;;;;;21.69;93.50;99697.88;5031058;28;20448;-60
2022/09/13 12:01:29;;;;;;;1.90;1.43;;;;;;;21.68;94.51;99696.16;4993840;28;20455;-60
2022/09/13 12:04:08;;;;;;;1.40;1.27;;;;;;;21.72;96.60;99691.34;5028795;28;20451;-60
2022/09/13 12:06:46;;;;;;;1.93;1.83;;;;;;;21.79;95.25;99698.81;5030603;28;20499;-60
2022/09/13 12:09:29;;;;;;;2.33;2.13;;;;;;;21.66;96.03;99698.16;5018420;28;20940;-60
2022/09/13 12:12:27;;;;;;;2.03;1.90;;;;;;;22.28;94.08;99693.78;5030495;28;20430;-60